Time;durP1;ratioP1;P1;durP2;ratioP2;P2;SDS_P1;SDS_P2;PMS_P1;PMS_P2;Temp;Humidity;BMP_temperature;BMP_pressure;BME280_temperature;BME280_humidity;BME280_pressure;Samples;Min_cycle;Max_cycle;Signal;HPM_P1;HPM_P2
2022/03/27 00:01:35;;;;;;;7.18;4.65;;;10.40;79.00;;;;;;5095872;28;20089;-32
2022/03/27 00:04:01;;;;;;;5.35;4.20;;;10.50;78.90;;;;;;5095893;28;20013;-30
2022/03/27 00:06:27;;;;;;;4.32;3.85;;;10.60;78.90;;;;;;5096091;28;20019;-30
2022/03/27 00:08:53;;;;;;;4.60;3.70;;;10.50;78.70;;;;;;5095989;28;20383;-31
2022/03/27 00:11:26;;;;;;;5.13;4.25;;;10.60;79.30;;;;;;5077666;28;20028;-31
2022/03/27 00:14:04;;;;;;;6.05;4.13;;;10.70;78.70;;;;;;5096087;28;20024;-30
2022/03/27 00:16:30;;;;;;;5.07;4.43;;;10.60;78.50;;;;;;5095771;28;20039;-31
2022/03/27 00:18:56;;;;;;;5.50;4.45;;;10.60;79.10;;;;;;5095990;28;20095;-31
2022/03/27 00:21:22;;;;;;;4.70;4.20;;;10.60;78.50;;;;;;5095563;28;20440;-34
2022/03/27 00:23:49;;;;;;;5.20;4.70;;;10.70;78.50;;;;;;5095029;28;20026;-30
2022/03/27 00:26:15;;;;;;;6.05;4.32;;;10.70;78.50;;;;;;5095528;28;20107;-31
2022/03/27 00:28:42;;;;;;;6.05;4.43;;;10.70;78.30;;;;;;5095553;28;20028;-30
2022/03/27 00:31:10;;;;;;;5.68;4.88;;;10.70;78.90;;;;;;5095835;28;20016;-30
2022/03/27 00:33:37;;;;;;;5.68;4.82;;;10.70;78.30;;;;;;5095363;28;20020;-33
2022/03/27 00:36:05;;;;;;;5.85;5.07;;;10.60;78.30;;;;;;5095404;28;20020;-30
2022/03/27 00:38:32;;;;;;;5.45;4.45;;;10.70;78.40;;;;;;5095324;28;20476;-37
2022/03/27 00:40:59;;;;;;;6.30;5.18;;;10.70;78.40;;;;;;5095112;28;20025;-39
2022/03/27 00:43:25;;;;;;;7.28;5.53;;;10.60;78.50;;;;;;5076964;28;20420;-41
2022/03/27 00:45:51;;;;;;;6.90;5.03;;;10.60;78.60;;;;;;5094984;28;20020;-41
2022/03/27 00:48:18;;;;;;;6.70;5.40;;;10.60;78.90;;;;;;5076767;28;20024;-37
2022/03/27 00:50:45;;;;;;;6.93;5.63;;;10.60;78.50;;;;;;5095116;28;20020;-42
2022/03/27 00:53:11;;;;;;;6.45;5.50;;;10.70;78.60;;;;;;5076741;28;20391;-39
2022/03/27 00:55:37;;;;;;;7.32;5.93;;;10.60;78.60;;;;;;5094756;28;20085;-38
2022/03/27 00:58:04;;;;;;;7.60;5.95;;;10.60;78.60;;;;;;5095009;28;20472;-43
2022/03/27 01:00:38;;;;;;;7.75;6.03;;;10.50;78.70;;;;;;5094711;28;20050;-40
2022/03/27 01:03:05;;;;;;;6.00;5.32;;;10.50;78.80;;;;;;5094790;28;20020;-38
2022/03/27 01:05:31;;;;;;;8.10;6.53;;;10.50;78.80;;;;;;5094972;28;20376;-40
2022/03/27 01:08:01;;;;;;;7.20;5.90;;;10.50;78.80;;;;;;5094688;28;20554;-42
2022/03/27 01:10:26;;;;;;;7.65;6.13;;;10.50;78.90;;;;;;5094642;28;20024;-41
2022/03/27 01:12:52;;;;;;;7.82;6.95;;;10.50;78.80;;;;;;5094613;28;20080;-39
2022/03/27 01:15:40;;;;;;;8.15;6.72;;;10.50;78.80;;;;;;5076373;28;20024;-40
2022/03/27 01:18:07;;;;;;;8.65;6.80;;;10.50;78.80;;;;;;5094628;28;20130;-42
2022/03/27 01:20:34;;;;;;;6.65;5.93;;;10.50;78.80;;;;;;5094447;28;20043;-40
2022/03/27 01:23:01;;;;;;;8.95;7.07;;;10.60;78.70;;;;;;5094529;28;20035;-40
2022/03/27 01:25:27;;;;;;;9.07;6.88;;;10.60;78.60;;;;;;5076240;28;20388;-39
2022/03/27 01:27:53;;;;;;;10.90;7.72;;;10.60;78.70;;;;;;5094526;28;20013;-37
2022/03/27 01:30:19;;;;;;;8.57;6.60;;;10.60;78.70;;;;;;5094311;28;20024;-40
2022/03/27 01:32:45;;;;;;;8.45;6.22;;;10.60;78.60;;;;;;5094213;28;20024;-42
2022/03/27 01:35:12;;;;;;;7.07;6.30;;;10.70;78.50;;;;;;5093453;28;20560;-42
2022/03/27 01:37:37;;;;;;;7.85;5.95;;;10.70;78.30;;;;;;5094362;28;20491;-42
2022/03/27 01:40:04;;;;;;;7.78;6.35;;;10.80;78.30;;;;;;5094135;28;20028;-39
2022/03/27 01:42:29;;;;;;;8.23;6.40;;;10.80;78.10;;;;;;5093952;28;20392;-39
2022/03/27 01:44:55;;;;;;;8.45;7.30;;;10.80;78.10;;;;;;5093992;28;20078;-38
2022/03/27 01:47:21;;;;;;;8.20;6.65;;;10.70;78.30;;;;;;5093894;28;20118;-39
2022/03/27 01:49:46;;;;;;;8.32;6.90;;;10.60;78.30;;;;;;5093837;28;20028;-38
2022/03/27 01:52:15;;;;;;;8.48;7.18;;;10.60;78.40;;;;;;5094055;28;20024;-37
2022/03/27 01:54:41;;;;;;;7.35;6.43;;;10.50;78.50;;;;;;5093991;28;20026;-38
2022/03/27 01:57:13;;;;;;;8.88;6.57;;;10.50;78.70;;;;;;5070209;28;20472;-36
2022/03/27 01:59:39;;;;;;;7.80;6.15;;;10.40;78.80;;;;;;5070141;28;20028;-34
2022/03/27 02:02:04;;;;;;;9.27;7.32;;;10.40;78.90;;;;;;5069974;28;20195;-36
2022/03/27 02:04:30;;;;;;;8.65;7.03;;;10.30;79.10;;;;;;5068680;28;20028;-35
2022/03/27 02:06:56;;;;;;;9.52;6.55;;;10.30;79.20;;;;;;5069958;28;20031;-35
2022/03/27 02:09:21;;;;;;;8.88;6.35;;;10.20;79.30;;;;;;5068656;28;20027;-36
2022/03/27 02:11:47;;;;;;;6.97;5.75;;;10.20;79.30;;;;;;5069805;28;20043;-35
2022/03/27 02:14:13;;;;;;;5.65;5.07;;;10.10;79.30;;;;;;5069806;28;20029;-36
2022/03/27 02:16:39;;;;;;;6.35;5.35;;;10.20;79.20;;;;;;5069743;28;20119;-35
2022/03/27 02:19:11;;;;;;;6.35;5.20;;;10.20;79.10;;;;;;5069635;28;20021;-35
2022/03/27 02:21:41;;;;;;;6.10;5.45;;;10.20;79.00;;;;;;5069663;28;20051;-35
2022/03/27 02:24:08;;;;;;;8.15;5.95;;;10.20;79.00;;;;;;5069512;28;20021;-35
2022/03/27 02:26:34;;;;;;;8.73;6.70;;;10.20;78.90;;;;;;5069561;28;20036;-34
2022/03/27 02:29:00;;;;;;;9.13;6.78;;;10.10;79.00;;;;;;5069412;28;20028;-34
2022/03/27 02:31:26;;;;;;;8.88;6.65;;;10.00;79.10;;;;;;5069457;28;20385;-35
2022/03/27 02:33:52;;;;;;;7.72;6.32;;;10.00;79.30;;;;;;5069351;28;20163;-35
2022/03/27 02:36:17;;;;;;;9.48;6.68;;;9.90;79.40;;;;;;5069212;28;20050;-36
2022/03/27 02:38:43;;;;;;;8.35;6.65;;;9.90;79.50;;;;;;5068007;28;20454;-34
2022/03/27 02:41:09;;;;;;;9.48;6.50;;;9.80;79.70;;;;;;5069375;28;20108;-37
2022/03/27 02:43:38;;;;;;;8.57;6.72;;;9.90;79.80;;;;;;5069128;28;20040;-36
2022/03/27 02:46:05;;;;;;;7.72;6.60;;;9.90;79.70;;;;;;5069016;28;20090;-35
2022/03/27 02:48:31;;;;;;;9.18;6.43;;;9.90;79.60;;;;;;5069156;28;20394;-35
2022/03/27 02:50:57;;;;;;;9.10;6.95;;;9.90;79.60;;;;;;5069092;28;20211;-37
2022/03/27 02:53:23;;;;;;;10.23;7.03;;;9.90;79.50;;;;;;5069015;28;20104;-35
2022/03/27 02:55:49;;;;;;;8.82;6.82;;;9.90;79.50;;;;;;5068815;28;20040;-37
2022/03/27 02:58:15;;;;;;;10.55;6.90;;;9.80;79.50;;;;;;5067745;28;20116;-35
2022/03/27 03:00:41;;;;;;;11.93;7.28;;;9.80;79.70;;;;;;5068923;28;20388;-35
2022/03/27 03:03:08;;;;;;;11.88;7.53;;;9.80;79.70;;;;;;5068845;28;20025;-35
2022/03/27 03:05:34;;;;;;;8.07;6.32;;;9.70;79.70;;;;;;5069116;28;20024;-36
2022/03/27 03:08:02;;;;;;;11.98;7.55;;;9.60;79.80;;;;;;5058698;28;20115;-36
2022/03/27 03:10:29;;;;;;;12.80;7.75;;;9.60;80.00;;;;;;5055627;28;20036;-35
2022/03/27 03:12:55;;;;;;;8.88;6.32;;;9.50;80.00;;;;;;5055474;28;20025;-35
2022/03/27 03:15:23;;;;;;;10.95;6.95;;;9.50;80.00;;;;;;5055406;28;20025;-35
2022/03/27 03:17:49;;;;;;;9.32;6.47;;;9.50;79.90;;;;;;5055445;28;20477;-33
2022/03/27 03:20:15;;;;;;;10.90;6.75;;;9.60;79.90;;;;;;5055522;28;20037;-35
2022/03/27 03:22:41;;;;;;;10.75;7.30;;;9.60;79.70;;;;;;5055419;28;20031;-34
2022/03/27 03:25:08;;;;;;;10.73;7.00;;;9.70;79.70;;;;;;5054092;28;20032;-35
2022/03/27 03:27:34;;;;;;;10.13;7.22;;;9.70;79.50;;;;;;5055211;28;20048;-35
2022/03/27 03:29:59;;;;;;;12.48;7.97;;;9.80;79.30;;;;;;5055195;28;20064;-35
2022/03/27 03:32:26;;;;;;;11.13;7.15;;;9.80;79.20;;;;;;5055285;28;20031;-35
2022/03/27 03:34:51;;;;;;;12.98;7.13;;;9.90;79.10;;;;;;5054972;28;20028;-35
2022/03/27 03:37:17;;;;;;;11.93;7.40;;;9.90;78.90;;;;;;5055142;28;20108;-35
2022/03/27 03:39:44;;;;;;;11.63;7.38;;;9.90;78.80;;;;;;5055220;28;20032;-35
2022/03/27 03:42:09;;;;;;;14.57;7.93;;;9.90;78.70;;;;;;5055143;28;20036;-35
2022/03/27 03:44:37;;;;;;;12.98;8.30;;;10.00;78.60;;;;;;5054820;28;20107;-35
2022/03/27 03:47:03;;;;;;;15.82;8.45;;;10.00;79.00;;;;;;5053600;28;20452;-35
2022/03/27 03:49:28;;;;;;;14.65;9.00;;;9.90;78.30;;;;;;5055045;28;20029;-35
2022/03/27 03:51:54;;;;;;;15.43;8.90;;;9.80;78.40;;;;;;5054748;28;20029;-34
2022/03/27 03:54:20;;;;;;;15.52;9.35;;;9.70;78.50;;;;;;5054914;28;20025;-34
2022/03/27 03:56:46;;;;;;;16.08;9.13;;;9.60;78.80;;;;;;5054408;28;20457;-34
2022/03/27 03:59:11;;;;;;;16.98;9.38;;;9.50;79.00;;;;;;5054600;28;20029;-34
2022/03/27 04:01:37;;;;;;;16.38;8.98;;;9.40;79.00;;;;;;5054600;28;20025;-33
2022/03/27 04:04:02;;;;;;;16.20;9.85;;;9.40;79.20;;;;;;5054494;28;20036;-34
2022/03/27 04:06:28;;;;;;;15.48;9.45;;;9.40;79.20;;;;;;5054700;28;20040;-36
2022/03/27 04:08:54;;;;;;;16.85;9.38;;;9.30;79.30;;;;;;5053092;28;20036;-33
2022/03/27 04:11:19;;;;;;;16.00;8.85;;;9.30;79.30;;;;;;5054304;28;20508;-34
2022/03/27 04:13:45;;;;;;;14.60;8.82;;;9.40;79.40;;;;;;5053175;28;20119;-44
2022/03/27 04:16:13;;;;;;;13.93;8.60;;;9.30;79.30;;;;;;5054622;28;20025;-34
2022/03/27 04:18:40;;;;;;;14.20;8.82;;;9.20;79.30;;;;;;5053540;28;20032;-35
2022/03/27 04:21:06;;;;;;;13.70;8.20;;;9.20;79.40;;;;;;5054151;28;20507;-34
2022/03/27 04:23:31;;;;;;;15.63;8.18;;;9.20;79.40;;;;;;5054274;28;20025;-34
2022/03/27 04:25:57;;;;;;;12.13;7.55;;;9.20;79.20;;;;;;5054240;28;20095;-34
2022/03/27 04:28:23;;;;;;;12.90;7.82;;;9.30;79.10;;;;;;5054112;28;20041;-35
2022/03/27 04:30:49;;;;;;;14.18;8.43;;;9.30;79.00;;;;;;5052772;28;20040;-35
2022/03/27 04:33:16;;;;;;;11.70;7.20;;;9.40;78.90;;;;;;5052693;28;20036;-34
2022/03/27 04:35:42;;;;;;;11.93;7.50;;;9.50;78.80;;;;;;5054198;28;20033;-34
2022/03/27 04:38:07;;;;;;;13.25;7.78;;;9.50;79.20;;;;;;5054237;28;20113;-34
2022/03/27 04:40:33;;;;;;;13.25;8.32;;;9.50;78.40;;;;;;5053885;28;20021;-33
2022/03/27 04:42:59;;;;;;;11.77;7.43;;;9.60;78.30;;;;;;5053638;28;20029;-34
2022/03/27 04:45:24;;;;;;;11.40;7.63;;;9.60;78.30;;;;;;5053869;28;20094;-34
2022/03/27 04:47:50;;;;;;;13.73;8.52;;;9.60;78.20;;;;;;5053516;28;20487;-34
2022/03/27 04:50:16;;;;;;;13.90;8.20;;;9.60;78.00;;;;;;5053943;28;20033;-34
2022/03/27 04:52:41;;;;;;;12.25;7.85;;;9.60;77.90;;;;;;5053612;28;20037;-35
2022/03/27 04:55:07;;;;;;;13.80;7.85;;;9.60;77.90;;;;;;5053190;28;20099;-34
2022/03/27 04:57:38;;;;;;;13.73;8.35;;;9.60;77.80;;;;;;5053683;28;20029;-35
2022/03/27 05:00:09;;;;;;;11.80;7.35;;;9.60;77.70;;;;;;5053268;28;20052;-35
2022/03/27 05:02:35;;;;;;;11.57;7.45;;;9.60;77.60;;;;;;5053230;28;20025;-35
2022/03/27 05:05:00;;;;;;;13.73;8.55;;;9.50;77.50;;;;;;5053261;28;20031;-36
2022/03/27 05:07:26;;;;;;;12.73;8.15;;;9.40;77.40;;;;;;5053554;28;20025;-35
2022/03/27 05:09:53;;;;;;;12.10;8.00;;;9.30;77.30;;;;;;5053200;28;20025;-34
2022/03/27 05:12:19;;;;;;;11.82;7.85;;;9.10;77.50;;;;;;5053564;28;20071;-35
2022/03/27 05:14:44;;;;;;;11.25;7.68;;;9.00;77.60;;;;;;5053294;28;20525;-34
2022/03/27 05:17:10;;;;;;;10.98;7.65;;;8.90;77.70;;;;;;5051850;28;20033;-34
2022/03/27 05:19:36;;;;;;;10.85;7.15;;;8.80;77.70;;;;;;5053131;28;20075;-34
2022/03/27 05:22:01;;;;;;;11.93;7.75;;;8.70;77.70;;;;;;5051839;28;20052;-35
2022/03/27 05:24:28;;;;;;;12.23;7.65;;;8.50;77.70;;;;;;5053426;28;20021;-36
2022/03/27 05:26:54;;;;;;;11.00;6.65;;;8.50;77.90;;;;;;5053068;28;20025;-35
2022/03/27 05:29:21;;;;;;;9.75;6.55;;;8.40;78.00;;;;;;5051772;28;20025;-34
2022/03/27 05:31:46;;;;;;;10.55;7.20;;;8.40;78.10;;;;;;5051444;28;20036;-34
2022/03/27 05:34:12;;;;;;;10.13;6.95;;;8.40;78.10;;;;;;5053090;28;20029;-35
2022/03/27 05:36:38;;;;;;;11.10;6.95;;;8.40;77.90;;;;;;5052885;28;20040;-34
2022/03/27 05:39:03;;;;;;;11.00;7.40;;;8.40;77.80;;;;;;5052806;28;20090;-35
2022/03/27 05:41:29;;;;;;;10.23;6.72;;;8.40;77.70;;;;;;5053143;28;20025;-34
2022/03/27 05:43:55;;;;;;;10.77;7.00;;;8.40;77.70;;;;;;5052834;28;20025;-35
2022/03/27 05:46:20;;;;;;;12.13;7.53;;;8.40;77.60;;;;;;5051594;28;20477;-34
2022/03/27 05:48:46;;;;;;;11.32;7.30;;;8.40;77.50;;;;;;5052739;28;20027;-34
2022/03/27 05:51:12;;;;;;;13.13;8.23;;;8.40;77.50;;;;;;5052730;28;20055;-34
2022/03/27 05:53:37;;;;;;;12.43;7.65;;;8.40;77.50;;;;;;5052667;28;20025;-35
2022/03/27 05:56:03;;;;;;;10.68;7.45;;;8.40;77.60;;;;;;5052464;28;20048;-34
2022/03/27 05:58:29;;;;;;;14.73;8.40;;;8.50;77.50;;;;;;5052678;28;20033;-35
2022/03/27 06:00:55;;;;;;;11.95;7.55;;;8.50;77.40;;;;;;5052602;28;20025;-34
2022/03/27 06:03:21;;;;;;;13.55;8.23;;;8.50;77.30;;;;;;5052775;28;20415;-35
2022/03/27 06:05:46;;;;;;;14.82;7.93;;;8.60;77.30;;;;;;5052598;28;20032;-35
2022/03/27 06:08:12;;;;;;;11.63;7.40;;;8.60;77.10;;;;;;5052560;28;20025;-34
2022/03/27 06:10:39;;;;;;;12.60;7.60;;;8.70;77.10;;;;;;5052579;28;20129;-35
2022/03/27 06:13:05;;;;;;;13.38;8.30;;;8.70;77.00;;;;;;5052741;28;20032;-35
2022/03/27 06:15:32;;;;;;;13.18;8.20;;;8.80;76.80;;;;;;5052505;28;20118;-33
2022/03/27 06:17:58;;;;;;;13.27;8.05;;;8.70;76.60;;;;;;5052613;28;20036;-35
2022/03/27 06:20:27;;;;;;;12.30;8.02;;;8.70;76.70;;;;;;5052368;28;20508;-35
2022/03/27 06:22:53;;;;;;;14.07;8.07;;;8.70;76.80;;;;;;5052419;28;20488;-34
2022/03/27 06:25:21;;;;;;;13.73;8.60;;;8.60;76.70;;;;;;5052354;28;20029;-34
2022/03/27 06:27:50;;;;;;;16.20;7.75;;;8.60;76.80;;;;;;5052336;28;20021;-34
2022/03/27 06:30:18;;;;;;;13.73;8.07;;;8.60;76.80;;;;;;5052304;28;20098;-34
2022/03/27 06:32:45;;;;;;;12.50;8.35;;;8.60;76.70;;;;;;5050953;28;20031;-34
2022/03/27 06:35:12;;;;;;;14.77;7.90;;;8.60;76.70;;;;;;5052216;28;20044;-34
2022/03/27 06:37:39;;;;;;;11.75;7.22;;;8.70;76.60;;;;;;5052318;28;20104;-34
2022/03/27 06:40:06;;;;;;;12.70;7.95;;;8.80;76.50;;;;;;5052284;28;20559;-34
2022/03/27 06:42:32;;;;;;;15.13;7.75;;;8.80;76.30;;;;;;5053701;28;20029;-34
2022/03/27 06:44:58;;;;;;;13.80;8.10;;;8.80;76.20;;;;;;5056406;28;20032;-34
2022/03/27 06:47:26;;;;;;;12.35;7.97;;;8.90;76.10;;;;;;5056108;28;20029;-34
2022/03/27 06:49:53;;;;;;;15.55;8.15;;;8.90;76.00;;;;;;5056065;28;20028;-34
2022/03/27 06:52:19;;;;;;;13.45;7.63;;;8.90;76.00;;;;;;5054732;28;20025;-36
2022/03/27 06:54:46;;;;;;;11.75;7.72;;;8.80;75.90;;;;;;5056149;28;20021;-34
2022/03/27 06:57:11;;;;;;;12.75;8.32;;;8.80;75.90;;;;;;5055800;28;20033;-35
2022/03/27 07:05:06;;;;;;;16.20;7.88;;;8.70;76.00;;;;;;5055554;28;20072;-34
2022/03/27 07:07:32;;;;;;;16.23;8.80;;;8.60;75.80;;;;;;5055494;28;20021;-35
2022/03/27 07:09:58;;;;;;;15.32;8.48;;;8.60;75.80;;;;;;5055430;28;20556;-33
2022/03/27 07:12:25;;;;;;;12.95;7.80;;;8.50;75.90;;;;;;5055374;28;20025;-34
2022/03/27 07:14:51;;;;;;;15.20;8.77;;;8.50;75.90;;;;;;5055727;28;20025;-35
2022/03/27 07:17:18;;;;;;;17.55;9.23;;;8.50;75.90;;;;;;5055187;28;20162;-34
2022/03/27 07:19:44;;;;;;;13.45;8.25;;;8.50;75.90;;;;;;5053918;28;20063;-33
2022/03/27 07:22:10;;;;;;;13.43;7.75;;;8.50;76.00;;;;;;5055234;28;20021;-34
2022/03/27 07:24:35;;;;;;;12.85;7.78;;;8.50;75.90;;;;;;5055251;28;20025;-36
2022/03/27 07:27:01;;;;;;;11.68;7.30;;;8.50;75.80;;;;;;5055160;28;20029;-36
2022/03/27 07:29:27;;;;;;;11.63;7.53;;;8.60;75.80;;;;;;5053824;28;20087;-34
2022/03/27 07:31:52;;;;;;;13.05;8.25;;;8.60;75.70;;;;;;5054991;28;20032;-35
2022/03/27 07:34:18;;;;;;;12.68;8.20;;;8.60;75.60;;;;;;5055209;28;20025;-34
2022/03/27 07:36:44;;;;;;;13.48;8.35;;;8.70;75.60;;;;;;5055010;28;20033;-33
2022/03/27 07:39:11;;;;;;;13.95;7.75;;;8.70;75.50;;;;;;5055176;28;20025;-35
2022/03/27 07:41:39;;;;;;;15.15;9.38;;;8.80;75.40;;;;;;5055036;28;20028;-35
2022/03/27 07:44:05;;;;;;;13.20;8.13;;;8.80;75.20;;;;;;5054819;28;20029;-34
2022/03/27 07:46:31;;;;;;;14.05;8.30;;;8.80;75.20;;;;;;5054991;28;20400;-35
2022/03/27 07:48:56;;;;;;;12.85;7.75;;;8.90;75.20;;;;;;5054858;28;20112;-36
2022/03/27 07:51:22;;;;;;;12.45;7.47;;;9.00;75.00;;;;;;5054893;28;20033;-36
2022/03/27 07:53:47;;;;;;;15.25;8.00;;;9.00;74.80;;;;;;5054999;28;20057;-35
2022/03/27 07:56:13;;;;;;;15.25;8.52;;;9.10;74.80;;;;;;5054810;28;20049;-34
2022/03/27 07:58:39;;;;;;;13.68;8.60;;;9.10;74.60;;;;;;5054786;28;20025;-37
2022/03/27 08:01:05;;;;;;;15.85;9.43;;;9.20;74.40;;;;;;5055166;28;20158;-36
2022/03/27 08:03:33;;;;;;;17.13;9.07;;;9.30;74.30;;;;;;5054721;28;20021;-37
2022/03/27 08:06:00;;;;;;;16.67;9.90;;;9.30;74.10;;;;;;5054633;28;20021;-34
2022/03/27 08:08:26;;;;;;;14.20;8.85;;;9.30;74.00;;;;;;5054643;28;20033;-34
2022/03/27 08:10:52;;;;;;;15.90;9.55;;;9.30;73.70;;;;;;5054475;28;20388;-33
2022/03/27 08:13:18;;;;;;;16.30;8.95;;;9.30;73.70;;;;;;5054704;28;20532;-34
2022/03/27 08:15:43;;;;;;;14.93;8.88;;;9.30;73.70;;;;;;5054544;28;20108;-33
2022/03/27 08:18:13;;;;;;;15.85;8.65;;;9.30;73.50;;;;;;5054425;28;20029;-35
2022/03/27 08:20:40;;;;;;;16.08;8.60;;;9.40;73.30;;;;;;5054348;28;20037;-35
2022/03/27 08:23:07;;;;;;;13.88;8.95;;;9.40;73.10;;;;;;5054138;28;20060;-34
2022/03/27 08:28:19;;;;;;;13.00;8.13;;;9.50;72.90;;;;;;5054146;28;20116;-33
2022/03/27 08:30:45;;;;;;;13.43;8.18;;;9.60;72.70;;;;;;5054027;28;20040;-34
2022/03/27 08:33:12;;;;;;;17.10;8.82;;;9.70;72.30;;;;;;5053875;28;20104;-34
2022/03/27 08:35:41;;;;;;;15.25;8.63;;;9.80;72.10;;;;;;5053785;28;20032;-34
2022/03/27 08:38:13;;;;;;;13.30;8.35;;;9.80;72.00;;;;;;5053836;28;20433;-34
2022/03/27 08:40:41;;;;;;;14.48;8.23;;;9.80;71.60;;;;;;5053963;28;20053;-35
2022/03/27 08:43:11;;;;;;;11.40;7.38;;;9.80;72.00;;;;;;5053900;28;20369;-34
2022/03/27 08:45:37;;;;;;;13.15;8.10;;;9.90;71.20;;;;;;5053563;28;20028;-34
2022/03/27 08:48:04;;;;;;;12.90;7.97;;;10.00;70.70;;;;;;5053572;28;20071;-35
2022/03/27 08:50:58;;;;;;;11.95;7.60;;;10.00;70.00;;;;;;5053581;28;20033;-35
2022/03/27 08:53:37;;;;;;;13.38;8.20;;;10.00;69.90;;;;;;5053727;28;20029;-34
2022/03/27 08:56:07;;;;;;;12.23;8.05;;;10.10;69.90;;;;;;5053347;28;20136;-35
2022/03/27 08:58:40;;;;;;;12.13;8.13;;;10.20;69.40;;;;;;5053478;28;20397;-35
2022/03/27 09:01:07;;;;;;;11.95;7.30;;;10.20;69.10;;;;;;5053633;28;20025;-35
2022/03/27 09:03:34;;;;;;;10.63;7.20;;;10.30;69.10;;;;;;5053538;28;20525;-35
2022/03/27 09:06:01;;;;;;;11.05;7.22;;;10.40;69.00;;;;;;5052982;28;20021;-35
2022/03/27 09:08:29;;;;;;;10.93;7.68;;;10.40;68.30;;;;;;5052036;28;20078;-35
2022/03/27 09:10:56;;;;;;;10.45;7.38;;;10.50;68.30;;;;;;5053329;28;20039;-35
2022/03/27 09:13:22;;;;;;;11.43;6.75;;;10.60;68.20;;;;;;5051901;28;20057;-36
2022/03/27 09:15:59;;;;;;;10.98;7.32;;;10.70;67.60;;;;;;5051763;28;20037;-33
2022/03/27 09:18:25;;;;;;;10.48;7.35;;;10.70;67.30;;;;;;5053337;28;20108;-33
2022/03/27 09:20:52;;;;;;;10.73;7.20;;;10.80;67.10;;;;;;5053099;28;20064;-34
2022/03/27 09:23:25;;;;;;;9.88;6.85;;;10.80;66.80;;;;;;5053005;28;20058;-35
2022/03/27 09:26:00;;;;;;;11.10;7.30;;;10.90;66.50;;;;;;5053508;28;20055;-34
2022/03/27 09:28:41;;;;;;;10.57;6.32;;;11.00;65.00;;;;;;5051847;28;20040;-34
2022/03/27 09:31:13;;;;;;;10.88;7.10;;;11.10;64.70;;;;;;5051491;28;20033;-35
2022/03/27 09:33:46;;;;;;;10.73;6.20;;;11.10;64.70;;;;;;5052892;28;20538;-35
2022/03/27 09:36:16;;;;;;;;;;;11.20;64.80;;;;;;5053313;28;20029;-34
2022/03/27 09:38:57;;;;;;;7.55;5.10;;;11.20;64.30;;;;;;5052921;28;19908;-34
2022/03/27 09:41:54;;;;;;;9.90;6.47;;;11.30;64.40;;;;;;5052648;28;20099;-34
2022/03/27 09:44:29;;;;;;;11.00;7.40;;;11.50;63.70;;;;;;5052709;28;20507;-34
2022/03/27 09:47:02;;;;;;;12.70;7.53;;;11.50;63.70;;;;;;5052588;28;20203;-33
2022/03/27 09:49:30;;;;;;;11.68;7.28;;;11.70;64.00;;;;;;5052609;28;20024;-34
2022/03/27 09:52:05;;;;;;;12.57;7.85;;;11.80;64.10;;;;;;5052649;28;20108;-34
2022/03/27 09:54:49;;;;;;;10.93;7.38;;;11.90;64.20;;;;;;5051388;28;20029;-35
2022/03/27 09:57:20;;;;;;;11.88;7.03;;;12.00;64.90;;;;;;5052651;28;20561;-35
2022/03/27 09:59:46;;;;;;;9.60;6.65;;;12.20;64.20;;;;;;5051188;28;20040;-33
2022/03/27 10:02:22;;;;;;;11.77;7.65;;;12.30;64.10;;;;;;5052790;28;20493;-34
2022/03/27 10:04:57;;;;;;;10.65;6.93;;;12.40;63.90;;;;;;5052831;28;20025;-34
2022/03/27 10:07:24;;;;;;;10.90;7.22;;;12.50;63.70;;;;;;5052885;28;20060;-35
2022/03/27 10:09:51;;;;;;;11.75;7.25;;;12.60;63.70;;;;;;5052847;28;20044;-34
2022/03/27 10:12:17;;;;;;;12.88;7.53;;;12.60;63.60;;;;;;5052720;28;20064;-34
2022/03/27 10:14:44;;;;;;;12.02;7.30;;;12.70;63.50;;;;;;5051240;28;20053;-34
2022/03/27 10:17:11;;;;;;;14.55;7.93;;;12.70;63.90;;;;;;5053551;28;20029;-35
2022/03/27 10:19:56;;;;;;;12.63;7.63;;;12.80;63.20;;;;;;5056443;28;20082;-35
2022/03/27 10:22:24;;;;;;;11.77;7.50;;;12.90;63.00;;;;;;5056527;28;20032;-34
2022/03/27 10:24:53;;;;;;;11.90;7.50;;;12.90;62.90;;;;;;5055126;28;20481;-35
2022/03/27 10:27:20;;;;;;;10.95;7.70;;;13.00;62.80;;;;;;5055092;28;20033;-35
2022/03/27 10:29:46;;;;;;;12.60;7.80;;;13.00;62.70;;;;;;5056454;28;20036;-35
2022/03/27 10:32:13;;;;;;;10.43;7.05;;;13.10;62.60;;;;;;5056453;28;20072;-34
2022/03/27 10:35:03;;;;;;;11.02;6.53;;;13.20;62.50;;;;;;5056465;28;20025;-35
2022/03/27 10:38:02;;;;;;;10.38;6.63;;;13.30;62.50;;;;;;5056198;28;20037;-34
2022/03/27 10:41:04;;;;;;;10.05;6.38;;;13.40;62.30;;;;;;5056414;28;20116;-34
2022/03/27 10:43:58;;;;;;;10.07;6.65;;;13.40;62.30;;;;;;5054573;28;20112;-34
2022/03/27 10:46:26;;;;;;;11.20;7.20;;;13.50;62.10;;;;;;5055820;28;20456;-35
2022/03/27 10:49:08;;;;;;;8.48;6.15;;;13.50;61.80;;;;;;5055615;28;20029;-34
2022/03/27 10:51:36;;;;;;;11.13;6.60;;;13.60;61.90;;;;;;5055926;28;20074;-33
2022/03/27 10:54:12;;;;;;;8.20;5.75;;;13.70;61.70;;;;;;5055960;28;20057;-34
2022/03/27 10:56:39;;;;;;;9.27;6.15;;;13.80;61.70;;;;;;5055514;28;20049;-35
2022/03/27 10:59:15;;;;;;;9.35;5.88;;;13.90;61.30;;;;;;5055959;28;20013;-35
2022/03/27 11:01:46;;;;;;;8.13;5.72;;;14.00;60.90;;;;;;5055901;28;20104;-34
2022/03/27 11:04:17;;;;;;;9.73;5.82;;;14.00;60.60;;;;;;5055550;28;20486;-34
2022/03/27 11:06:46;;;;;;;10.25;5.45;;;14.00;60.40;;;;;;5055586;28;20075;-34
2022/03/27 11:09:30;;;;;;;8.23;5.72;;;14.10;60.50;;;;;;5055573;28;20031;-34
2022/03/27 11:11:56;;;;;;;9.85;5.63;;;14.20;60.10;;;;;;5055222;28;20473;-35
2022/03/27 11:14:42;;;;;;;9.02;5.30;;;14.20;60.00;;;;;;5055499;28;20025;-34
2022/03/27 11:17:12;;;;;;;5.95;3.97;;;14.30;59.60;;;;;;5055373;28;20040;-35
2022/03/27 11:19:46;;;;;;;5.18;3.42;;;14.40;59.00;;;;;;5055772;28;20357;-34
2022/03/27 11:22:47;;;;;;;5.38;3.08;;;14.40;58.80;;;;;;5055579;28;20108;-35
2022/03/27 11:25:35;;;;;;;7.32;3.05;;;14.60;58.10;;;;;;5055304;28;20060;-35
2022/03/27 11:28:30;;;;;;;7.43;3.55;;;14.60;57.50;;;;;;5055072;28;20029;-35
2022/03/27 11:30:56;;;;;;;5.75;3.10;;;14.60;54.00;;;;;;5046791;28;20037;-33
2022/03/27 11:33:22;;;;;;;9.68;3.70;;;14.60;54.40;;;;;;5055443;28;20029;-35
2022/03/27 11:36:09;;;;;;;5.78;2.60;;;14.70;54.60;;;;;;5055098;28;20029;-34
2022/03/27 11:38:35;;;;;;;5.70;3.05;;;14.80;54.60;;;;;;5055208;28;20141;-35
2022/03/27 11:41:29;;;;;;;4.55;2.95;;;14.80;54.10;;;;;;5054912;28;20500;-35
2022/03/27 11:43:55;;;;;;;5.28;2.92;;;14.90;53.60;;;;;;5055174;28;20112;-42
2022/03/27 11:46:29;;;;;;;8.38;3.40;;;15.00;53.90;;;;;;5054977;28;20100;-33
2022/03/27 11:48:55;;;;;;;;;;;15.10;53.50;;;;;;5055379;28;20025;-32
2022/03/27 11:51:24;;;;;;;4.72;2.97;;;15.10;52.00;;;;;;5055100;28;19904;-36
2022/03/27 11:53:50;;;;;;;4.25;3.17;;;15.20;52.00;;;;;;5054880;28;20171;-36
2022/03/27 11:56:16;;;;;;;8.85;3.75;;;15.10;52.10;;;;;;5054409;28;20106;-34
2022/03/27 11:58:42;;;;;;;8.95;4.35;;;15.20;52.90;;;;;;5054661;28;20094;-34
2022/03/27 12:01:09;;;;;;;7.85;4.25;;;15.30;52.90;;;;;;5054510;28;20017;-35
2022/03/27 12:03:37;;;;;;;7.80;4.10;;;15.40;53.10;;;;;;5054462;28;20140;-35
2022/03/27 12:06:10;;;;;;;8.80;4.88;;;15.50;53.30;;;;;;5054528;28;20324;-34
2022/03/27 12:08:40;;;;;;;7.45;4.55;;;15.60;53.20;;;;;;5053375;28;20115;-34
2022/03/27 12:11:07;;;;;;;6.55;4.22;;;15.70;53.10;;;;;;5054448;28;20024;-35
2022/03/27 12:13:42;;;;;;;8.07;4.07;;;15.80;53.00;;;;;;5054757;28;20072;-34
2022/03/27 12:16:20;;;;;;;7.18;4.18;;;15.80;52.90;;;;;;5054509;28;20491;-34
2022/03/27 12:18:47;;;;;;;5.97;4.07;;;15.90;53.10;;;;;;5054237;28;20452;-34
2022/03/27 12:21:14;;;;;;;9.20;4.38;;;15.90;53.00;;;;;;5054170;28;20021;-34
2022/03/27 12:23:42;;;;;;;7.00;3.38;;;16.00;52.90;;;;;;5054315;28;20547;-34
2022/03/27 12:32:08;;;;;;;6.60;3.65;;;16.20;53.30;;;;;;5053948;28;20036;-34
2022/03/27 12:34:41;;;;;;;5.50;3.40;;;16.30;53.20;;;;;;5054059;28;20078;-34
2022/03/27 12:37:20;;;;;;;6.07;3.47;;;16.40;53.40;;;;;;5054113;28;20021;-34
2022/03/27 12:39:49;;;;;;;6.78;3.65;;;16.50;53.40;;;;;;5051769;28;20473;-34
2022/03/27 12:42:37;;;;;;;7.15;4.13;;;16.50;52.90;;;;;;5053947;28;20028;-35
2022/03/27 12:45:36;;;;;;;5.68;3.28;;;16.60;53.40;;;;;;5054028;28;20025;-34
2022/03/27 12:48:17;;;;;;;6.53;3.08;;;16.60;52.60;;;;;;5053848;28;20021;-35
2022/03/27 12:50:45;;;;;;;5.60;3.45;;;16.70;52.60;;;;;;5053609;28;20415;-35
2022/03/27 12:53:13;;;;;;;5.05;3.35;;;16.70;52.60;;;;;;5053591;28;20096;-34
2022/03/27 12:55:50;;;;;;;6.10;3.45;;;16.80;53.00;;;;;;5051881;28;20087;-34
2022/03/27 12:58:19;;;;;;;5.57;3.40;;;16.90;52.10;;;;;;5053229;28;20541;-34
2022/03/27 13:01:06;;;;;;;7.55;3.70;;;16.90;52.10;;;;;;5053145;28;20092;-34
2022/03/27 13:03:32;;;;;;;6.50;3.40;;;17.00;51.80;;;;;;5049501;28;20112;-36
2022/03/27 13:06:01;;;;;;;5.55;3.50;;;17.10;52.30;;;;;;5053319;28;20040;-35
2022/03/27 13:08:41;;;;;;;5.78;3.20;;;17.10;52.60;;;;;;5053381;28;20481;-34